createdAt,value
2023-05-11T00:00:04.263Z,33.20
2023-05-11T00:02:34.764Z,33.17
2023-05-11T00:05:02.122Z,33.19
2023-05-11T00:07:29.221Z,33.35
2023-05-11T00:09:56.206Z,33.21
2023-05-11T00:12:26.000Z,33.33
2023-05-11T00:14:52.994Z,33.42
2023-05-11T00:17:21.569Z,33.41
2023-05-11T00:19:49.840Z,33.62
2023-05-11T00:22:16.885Z,33.65
2023-05-11T00:24:44.277Z,33.62
2023-05-11T00:27:11.285Z,33.49
2023-05-11T00:29:40.455Z,33.70
2023-05-11T00:32:07.561Z,33.88
2023-05-11T00:34:34.508Z,33.72
2023-05-11T00:37:02.528Z,34.03
2023-05-11T00:39:29.962Z,33.91
2023-05-11T00:41:56.917Z,33.96
2023-05-11T00:44:23.868Z,33.95
2023-05-11T00:46:51.475Z,34.03
2023-05-11T00:49:21.019Z,34.02
2023-05-11T00:51:48.078Z,33.95
2023-05-11T00:54:16.349Z,34.03
2023-05-11T00:56:43.319Z,34.20
2023-05-11T00:59:10.971Z,34.09
2023-05-11T01:01:38.396Z,34.27
2023-05-11T01:04:05.514Z,34.13
2023-05-11T01:06:54.033Z,34.12
2023-05-11T01:09:30.896Z,34.46
2023-05-11T01:12:28.046Z,34.47
2023-05-11T01:15:00.617Z,34.54
2023-05-11T01:18:02.499Z,34.81
2023-05-11T01:20:30.903Z,34.72
2023-05-11T01:23:23.218Z,34.76
2023-05-11T01:25:56.211Z,34.83
2023-05-11T01:28:52.814Z,34.80
2023-05-11T01:31:19.887Z,34.91
2023-05-11T01:33:52.232Z,35.05
2023-05-11T01:36:19.510Z,34.87
2023-05-11T01:38:47.656Z,34.95
2023-05-11T01:41:16.516Z,34.88
2023-05-11T01:43:52.516Z,35.00
2023-05-11T01:46:20.106Z,34.93
2023-05-11T01:48:48.654Z,35.02
2023-05-11T01:51:15.663Z,34.86
2023-05-11T01:53:42.577Z,34.92
2023-05-11T01:56:09.607Z,34.89
2023-05-11T01:58:36.864Z,34.87
2023-05-11T02:01:04.300Z,34.83
2023-05-11T02:03:35.169Z,34.90
2023-05-11T02:06:04.354Z,34.78
2023-05-11T02:08:31.900Z,34.87
2023-05-11T02:10:59.148Z,34.57
2023-05-11T02:13:28.901Z,34.55
2023-05-11T02:15:56.459Z,34.66
2023-05-11T02:18:26.545Z,34.72
2023-05-11T02:20:58.096Z,34.68
2023-05-11T02:23:25.900Z,34.88
2023-05-11T02:25:53.398Z,34.92
2023-05-11T02:28:20.485Z,35.37
2023-05-11T02:30:51.633Z,35.48
2023-05-11T02:33:23.614Z,35.44
2023-05-11T02:35:51.601Z,35.61
2023-05-11T02:38:21.146Z,35.55
2023-05-11T02:40:50.353Z,35.60
2023-05-11T02:43:24.107Z,35.90
2023-05-11T02:45:59.004Z,35.79
2023-05-11T02:48:27.423Z,35.98
2023-05-11T02:50:55.511Z,35.68
2023-05-11T02:53:27.062Z,36.08
2023-05-11T02:55:55.796Z,35.96
2023-05-11T02:58:23.357Z,36.08
2023-05-11T03:03:47.382Z,36.19
2023-05-11T03:06:14.960Z,36.18
2023-05-11T03:08:42.453Z,36.02
2023-05-11T03:11:11.619Z,36.11
2023-05-11T03:13:39.257Z,36.11
2023-05-11T03:16:06.804Z,36.14
2023-05-11T03:18:35.133Z,36.15
2023-05-11T03:21:03.085Z,36.54
2023-05-11T03:23:34.093Z,36.77
2023-05-11T03:26:01.157Z,36.54
2023-05-11T03:28:30.415Z,37.03
2023-05-11T03:31:01.039Z,36.96
2023-05-11T03:33:29.741Z,37.00
2023-05-11T03:35:58.352Z,37.04
2023-05-11T03:38:26.258Z,36.84
2023-05-11T03:40:53.743Z,36.74
2023-05-11T03:43:21.409Z,36.72
2023-05-11T03:45:51.055Z,36.67
2023-05-11T03:48:18.594Z,36.14
2023-05-11T03:50:46.910Z,35.98
2023-05-11T03:53:15.805Z,35.86
2023-05-11T03:55:43.150Z,36.20
2023-05-11T03:58:10.946Z,36.23
2023-05-11T04:00:39.581Z,36.62
2023-05-11T04:03:10.389Z,36.67
2023-05-11T04:05:38.295Z,36.44
2023-05-11T04:08:08.838Z,36.57
2023-05-11T04:10:37.995Z,36.72
2023-05-11T04:13:05.234Z,36.29
2023-05-11T04:15:34.086Z,35.78
2023-05-11T04:18:01.209Z,35.60
2023-05-11T04:20:29.434Z,35.36
2023-05-11T04:22:58.183Z,35.33
2023-05-11T04:25:26.304Z,35.14
2023-05-11T04:27:53.375Z,34.68
2023-05-11T04:30:22.837Z,34.35
2023-05-11T04:32:50.537Z,34.07
2023-05-11T04:35:18.387Z,33.94
2023-05-11T04:37:47.768Z,33.73
2023-05-11T04:40:24.448Z,33.49
2023-05-11T04:42:55.182Z,33.45
2023-05-11T04:45:23.356Z,33.56
2023-05-11T04:47:51.577Z,33.42
2023-05-11T04:50:19.592Z,33.20
2023-05-11T04:52:49.472Z,32.93
2023-05-11T04:55:18.426Z,32.80
2023-05-11T04:57:47.282Z,32.66
2023-05-11T05:00:17.637Z,32.47
2023-05-11T05:02:50.888Z,32.36
2023-05-11T05:05:18.479Z,32.37
2023-05-11T05:07:48.705Z,32.35
2023-05-11T05:10:19.811Z,32.33
2023-05-11T05:12:48.643Z,32.23
2023-05-11T05:15:17.684Z,31.84
2023-05-11T05:17:46.148Z,31.70
2023-05-11T05:20:15.238Z,31.63
2023-05-11T05:22:42.379Z,31.25
2023-05-11T05:25:15.142Z,31.19
2023-05-11T05:27:42.363Z,30.91
2023-05-11T05:30:14.176Z,30.88
2023-05-11T05:32:44.224Z,30.67
2023-05-11T05:35:11.830Z,30.84
2023-05-11T05:37:42.504Z,30.87
2023-05-11T05:40:09.723Z,30.62
2023-05-11T05:42:42.148Z,30.54
2023-05-11T05:45:14.836Z,30.43
2023-05-11T05:47:42.953Z,30.20
2023-05-11T05:50:11.977Z,29.97
2023-05-11T05:52:42.736Z,29.84
2023-05-11T05:55:10.627Z,29.60
2023-05-11T05:57:41.959Z,29.33
2023-05-11T06:00:14.754Z,29.17
2023-05-11T06:02:50.993Z,28.96
2023-05-11T06:05:23.711Z,28.86
2023-05-11T06:08:01.813Z,28.49
2023-05-11T06:10:36.975Z,27.90
2023-05-11T06:13:07.760Z,27.55
2023-05-11T06:15:43.218Z,27.26
2023-05-11T06:18:18.506Z,26.64
2023-05-11T06:20:46.419Z,26.21
2023-05-11T06:23:15.123Z,25.62
2023-05-11T06:25:47.182Z,24.91
2023-05-11T06:28:16.674Z,24.62
2023-05-11T06:30:44.773Z,25.01
2023-05-11T06:33:31.971Z,24.83
2023-05-11T06:36:14.654Z,24.41
2023-05-11T06:38:42.215Z,24.08
2023-05-11T06:41:11.638Z,23.68
2023-05-11T06:43:41.884Z,23.41
2023-05-11T06:46:20.485Z,23.13
2023-05-11T06:48:50.338Z,23.03
2023-05-11T06:51:22.285Z,22.89
2023-05-11T06:54:02.250Z,22.88
2023-05-11T06:56:32.750Z,22.82
2023-05-11T06:59:03.689Z,22.53
2023-05-11T07:01:32.100Z,22.56
2023-05-11T07:04:01.671Z,22.34
2023-05-11T07:06:34.569Z,22.49
2023-05-11T07:09:03.942Z,22.50
2023-05-11T07:11:32.089Z,22.37
2023-05-11T07:14:00.211Z,22.51
2023-05-11T07:16:28.604Z,22.28
2023-05-11T07:18:56.380Z,22.13
2023-05-11T07:21:25.026Z,21.66
2023-05-11T07:23:52.135Z,21.10
2023-05-11T07:26:21.558Z,21.01
2023-05-11T07:28:51.268Z,21.04
2023-05-11T07:31:19.192Z,20.78
2023-05-11T07:33:47.450Z,20.35
2023-05-11T07:36:14.883Z,20.13
2023-05-11T07:38:42.505Z,20.09
2023-05-11T07:41:12.237Z,19.97
2023-05-11T07:43:39.933Z,19.88
2023-05-11T07:46:07.423Z,19.68
2023-05-11T07:48:35.372Z,19.55
2023-05-11T07:51:02.702Z,19.38
2023-05-11T07:53:29.941Z,19.26
2023-05-11T07:55:59.169Z,19.08
2023-05-11T07:58:26.573Z,19.21
2023-05-11T08:00:53.701Z,18.85
2023-05-11T08:03:21.662Z,18.70
2023-05-11T08:05:51.249Z,18.74
2023-05-11T08:08:19.537Z,18.85
2023-05-11T08:10:46.701Z,18.63
2023-05-11T08:13:13.802Z,18.43
2023-05-11T08:15:41.045Z,18.28
2023-05-11T08:18:09.030Z,18.06
2023-05-11T08:20:38.592Z,17.83
2023-05-11T08:23:10.415Z,17.60
2023-05-11T08:25:37.352Z,17.27
2023-05-11T08:28:04.461Z,17.33
2023-05-11T08:30:32.355Z,17.84
2023-05-11T08:33:00.906Z,18.17
2023-05-11T08:35:30.566Z,18.26
2023-05-11T08:37:57.760Z,18.13
2023-05-11T08:40:27.001Z,18.08
2023-05-11T08:42:56.736Z,18.30
2023-05-11T08:45:28.554Z,18.32
2023-05-11T08:47:59.182Z,18.49
2023-05-11T08:50:26.353Z,18.25
2023-05-11T08:52:56.230Z,18.27
2023-05-11T08:55:23.758Z,18.12
2023-05-11T08:57:56.091Z,18.30
2023-05-11T09:00:28.431Z,18.31
2023-05-11T09:02:56.342Z,18.50
2023-05-11T09:05:24.878Z,18.69
2023-05-11T09:07:55.344Z,18.75
2023-05-11T09:10:22.624Z,18.93
2023-05-11T09:12:50.080Z,18.90
2023-05-11T09:15:18.830Z,18.79
2023-05-11T09:17:47.337Z,18.87
2023-05-11T09:20:14.328Z,19.05
2023-05-11T09:22:46.107Z,19.07
2023-05-11T09:25:16.621Z,19.11
2023-05-11T09:27:45.874Z,19.29
2023-05-11T09:32:54.086Z,18.98
2023-05-11T09:35:31.306Z,19.06
2023-05-11T09:38:15.873Z,19.00
2023-05-11T09:40:55.934Z,19.22
2023-05-11T09:43:26.925Z,19.05
2023-05-11T09:45:58.050Z,18.73
2023-05-11T09:48:27.496Z,18.41
2023-05-11T09:51:07.246Z,18.40
2023-05-11T09:53:34.598Z,18.22
2023-05-11T09:56:01.748Z,18.13
2023-05-11T09:58:58.981Z,18.16
2023-05-11T10:01:32.492Z,17.96
2023-05-11T10:04:13.299Z,18.11
2023-05-11T10:06:50.420Z,17.98
2023-05-11T10:09:18.862Z,18.13
2023-05-11T10:11:46.568Z,18.30
2023-05-11T10:14:17.257Z,18.50
2023-05-11T10:16:46.118Z,18.40
2023-05-11T10:19:16.383Z,18.40
2023-05-11T10:21:45.861Z,18.38
2023-05-11T10:24:13.922Z,18.18
2023-05-11T10:26:41.177Z,18.17
2023-05-11T10:29:08.350Z,18.10
2023-05-11T10:31:37.850Z,18.24
2023-05-11T10:34:05.897Z,18.03
2023-05-11T10:36:35.826Z,17.81
2023-05-11T10:39:03.840Z,17.70
2023-05-11T10:41:55.155Z,17.51
2023-05-11T10:44:59.124Z,17.58
2023-05-11T10:47:36.232Z,17.12
2023-05-11T10:50:09.312Z,17.03
2023-05-11T10:52:45.087Z,16.86
2023-05-11T10:55:30.798Z,16.99
2023-05-11T10:58:10.171Z,17.22
2023-05-11T11:01:19.685Z,17.31
2023-05-11T11:04:02.521Z,17.66
2023-05-11T11:06:29.931Z,17.74
2023-05-11T11:08:58.653Z,18.03
2023-05-11T11:11:30.184Z,17.95
2023-05-11T11:13:58.385Z,17.81
2023-05-11T11:16:25.868Z,17.54
2023-05-11T11:18:53.016Z,17.40
2023-05-11T11:21:42.459Z,17.09
2023-05-11T11:24:42.441Z,17.03
2023-05-11T11:27:09.607Z,16.89
2023-05-11T11:29:37.972Z,16.93
2023-05-11T11:32:24.879Z,16.95
2023-05-11T11:34:52.743Z,17.38
2023-05-11T11:37:21.951Z,17.45
2023-05-11T11:39:50.072Z,17.54
2023-05-11T11:42:18.425Z,17.66
2023-05-11T11:44:49.759Z,17.70
2023-05-11T11:47:19.541Z,17.96
2023-05-11T11:49:52.990Z,18.11
2023-05-11T11:52:26.554Z,18.18
2023-05-11T11:54:55.413Z,18.40
2023-05-11T11:57:34.841Z,18.67
2023-05-11T12:00:10.003Z,18.99
2023-05-11T12:02:42.497Z,19.12
2023-05-11T12:05:14.050Z,19.30
2023-05-11T12:07:50.076Z,19.28
2023-05-11T12:10:22.221Z,19.20
2023-05-11T12:12:50.932Z,19.10
2023-05-11T12:15:28.091Z,19.28
2023-05-11T12:18:03.536Z,19.19
2023-05-11T12:20:40.509Z,19.55
2023-05-11T12:23:10.550Z,19.58
2023-05-11T12:25:38.251Z,19.59
2023-05-11T12:28:06.150Z,19.36
2023-05-11T12:30:33.974Z,19.32
2023-05-11T12:33:11.072Z,19.44
2023-05-11T12:35:39.978Z,19.48
2023-05-11T12:38:07.076Z,19.62
2023-05-11T12:40:36.438Z,19.55
2023-05-11T12:43:06.175Z,19.85
2023-05-11T12:45:35.841Z,19.81
2023-05-11T12:48:03.858Z,19.97
2023-05-11T12:50:36.667Z,20.04
2023-05-11T12:53:17.657Z,20.02
2023-05-11T12:55:46.675Z,19.80
2023-05-11T12:58:18.311Z,19.78
2023-05-11T13:00:57.143Z,19.90
2023-05-11T13:03:29.102Z,20.02
2023-05-11T13:06:11.981Z,20.01
2023-05-11T13:08:47.426Z,20.09
2023-05-11T13:11:25.190Z,20.20
2023-05-11T13:13:53.269Z,20.28
2023-05-11T13:16:31.811Z,20.35
2023-05-11T13:19:00.754Z,20.30
2023-05-11T13:21:29.538Z,20.44
2023-05-11T13:23:56.619Z,20.54
2023-05-11T13:26:25.880Z,20.59
2023-05-11T13:29:08.794Z,20.84
2023-05-11T13:32:01.374Z,20.78
2023-05-11T13:34:30.335Z,20.70
2023-05-11T13:36:57.292Z,20.69
2023-05-11T13:39:24.929Z,20.74
2023-05-11T13:41:53.132Z,20.64
2023-05-11T13:44:22.318Z,20.91
2023-05-11T13:46:49.923Z,20.73
2023-05-11T13:49:17.862Z,20.67
2023-05-11T13:51:45.426Z,20.80
2023-05-11T13:54:14.608Z,20.93
2023-05-11T13:56:44.125Z,20.85
2023-05-11T13:59:12.684Z,20.80
2023-05-11T14:01:40.096Z,20.86
2023-05-11T14:04:09.380Z,20.54
2023-05-11T14:06:37.332Z,20.38
2023-05-11T14:09:04.500Z,20.39
2023-05-11T14:11:33.236Z,20.44
2023-05-11T14:14:04.129Z,20.57
2023-05-11T14:16:31.252Z,20.70
2023-05-11T14:18:58.515Z,20.65
2023-05-11T14:21:25.591Z,20.79
2023-05-11T14:24:10.024Z,20.91
2023-05-11T14:26:39.566Z,20.96
2023-05-11T14:29:06.947Z,21.05
2023-05-11T14:31:36.826Z,21.07
2023-05-11T14:34:04.248Z,21.10
2023-05-11T14:36:37.650Z,21.15
2023-05-11T14:39:08.355Z,21.31
2023-05-11T14:41:36.885Z,21.40
2023-05-11T14:44:04.490Z,21.42
2023-05-11T14:46:33.278Z,21.44
2023-05-11T14:49:01.556Z,21.48
2023-05-11T14:51:29.205Z,21.48
2023-05-11T14:53:56.272Z,21.50
2023-05-11T14:56:26.213Z,21.65
2023-05-11T14:58:58.195Z,21.77
2023-05-11T15:01:30.768Z,21.97
2023-05-11T15:04:05.673Z,22.02
2023-05-11T15:06:37.237Z,22.05
2023-05-11T15:09:06.424Z,22.09
2023-05-11T15:11:39.491Z,22.14
2023-05-11T15:14:07.977Z,22.16
2023-05-11T15:16:38.135Z,22.25
2023-05-11T15:19:08.848Z,22.33
2023-05-11T15:21:37.653Z,22.38
2023-05-11T15:24:09.201Z,22.45
2023-05-11T15:26:38.434Z,22.46
2023-05-11T15:29:09.427Z,22.65
2023-05-11T15:31:39.168Z,22.74
2023-05-11T15:34:06.700Z,22.75
2023-05-11T15:37:10.234Z,22.84
2023-05-11T15:39:41.146Z,22.89
2023-05-11T15:42:13.828Z,22.91
2023-05-11T15:44:45.292Z,22.92
2023-05-11T15:47:20.755Z,23.00
2023-05-11T15:50:04.420Z,22.94
2023-05-11T15:52:40.216Z,23.07
2023-05-11T15:55:12.979Z,23.11
2023-05-11T15:57:41.277Z,23.26
2023-05-11T16:00:11.155Z,23.19
2023-05-11T16:02:39.438Z,23.32
2023-05-11T16:05:13.723Z,23.27
2023-05-11T16:07:42.974Z,23.36
2023-05-11T16:10:14.008Z,23.48
2023-05-11T16:12:41.519Z,23.49
2023-05-11T16:15:09.749Z,23.52
2023-05-11T16:17:37.554Z,23.64
2023-05-11T16:20:06.837Z,23.76
2023-05-11T16:22:36.714Z,23.90
2023-05-11T16:25:05.378Z,23.95
2023-05-11T16:27:37.055Z,23.98
2023-05-11T16:30:21.712Z,24.02
2023-05-11T16:32:51.362Z,24.13
2023-05-11T16:35:27.291Z,24.28
2023-05-11T16:37:59.422Z,24.27
2023-05-11T16:40:29.800Z,24.25
2023-05-11T16:42:57.431Z,24.24
2023-05-11T16:45:25.412Z,24.36
2023-05-11T16:47:53.106Z,24.44
2023-05-11T16:50:22.269Z,24.59
2023-05-11T16:52:51.118Z,24.68
2023-05-11T16:55:19.751Z,24.88
2023-05-11T16:57:47.070Z,25.00
2023-05-11T17:00:17.100Z,24.99
2023-05-11T17:02:47.074Z,25.21
2023-05-11T17:05:14.611Z,25.27
2023-05-11T17:07:44.288Z,25.37
2023-05-11T17:10:12.879Z,25.59
2023-05-11T17:12:42.235Z,25.79
2023-05-11T17:15:09.977Z,25.77
2023-05-11T17:17:39.472Z,25.93
2023-05-11T17:20:09.810Z,26.04
2023-05-11T17:22:39.880Z,26.11
2023-05-11T17:25:08.312Z,26.26
2023-05-11T17:27:37.023Z,26.35
2023-05-11T17:30:09.103Z,26.33
2023-05-11T17:32:37.916Z,26.21
2023-05-11T17:35:07.980Z,26.27
2023-05-11T17:37:35.434Z,26.18
2023-05-11T17:40:03.528Z,26.19
2023-05-11T17:42:32.715Z,26.36
2023-05-11T17:45:00.156Z,26.42
2023-05-11T17:47:28.609Z,26.48
2023-05-11T17:49:56.062Z,26.62
2023-05-11T17:52:25.524Z,26.65
2023-05-11T17:54:52.850Z,26.67
2023-05-11T17:57:22.969Z,26.75
2023-05-11T17:59:51.338Z,26.92
2023-05-11T18:02:27.812Z,26.99
